createdAt,value
2019-06-08T00:02:08.746Z,3.10
2019-06-08T00:05:14.870Z,2.60
2019-06-08T00:08:19.433Z,2.30
2019-06-08T00:11:24.016Z,2.10
2019-06-08T00:14:28.863Z,1.60
2019-06-08T00:17:38.453Z,1.40
2019-06-08T00:20:42.602Z,1.20
2019-06-08T00:23:48.271Z,1.33
2019-06-08T00:27:04.460Z,1.10
2019-06-08T00:30:09.331Z,1.10
2019-06-08T00:33:14.356Z,0.93
2019-06-08T00:36:18.934Z,1.00
2019-06-08T00:39:27.066Z,0.60
2019-06-08T00:42:31.608Z,0.70
2019-06-08T00:45:36.459Z,0.90
2019-06-08T00:48:41.072Z,0.77
2019-06-08T00:51:45.653Z,0.90
2019-06-08T00:54:50.173Z,0.90
2019-06-08T00:57:54.737Z,0.70
2019-06-08T01:00:59.398Z,0.90
2019-06-08T01:04:04.022Z,1.07
2019-06-08T01:07:08.543Z,1.00
2019-06-08T01:10:13.500Z,0.90
2019-06-08T01:13:18.818Z,0.90
2019-06-08T01:16:24.942Z,0.80
2019-06-08T01:19:29.798Z,1.03
2019-06-08T01:22:34.410Z,0.90
2019-06-08T01:25:39.015Z,0.80
2019-06-08T01:28:43.619Z,0.90
2019-06-08T01:31:48.141Z,0.97
2019-06-08T01:34:52.753Z,0.83
2019-06-08T01:37:57.372Z,0.90
2019-06-08T01:41:01.924Z,0.80
2019-06-08T01:44:06.479Z,0.90
2019-06-08T01:47:11.126Z,0.70
2019-06-08T01:50:15.781Z,0.70
2019-06-08T01:53:26.862Z,0.50
2019-06-08T01:56:31.497Z,0.57
2019-06-08T01:59:36.067Z,0.60
2019-06-08T02:02:40.766Z,0.60
2019-06-08T02:05:45.264Z,0.60
2019-06-08T02:08:49.852Z,0.70
2019-06-08T02:11:54.401Z,0.60
2019-06-08T02:14:59.090Z,0.60
2019-06-08T02:18:03.652Z,0.80
2019-06-08T02:21:08.369Z,0.60
2019-06-08T02:24:12.942Z,0.60
2019-06-08T02:27:17.595Z,0.50
2019-06-08T02:30:22.424Z,0.70
2019-06-08T02:33:28.293Z,0.50
2019-06-08T02:36:33.822Z,0.47
2019-06-08T02:39:39.967Z,0.60
2019-06-08T02:42:44.597Z,0.50
2019-06-08T02:45:49.183Z,0.50
2019-06-08T02:49:03.281Z,0.50
2019-06-08T02:52:01.319Z,0.40
2019-06-08T02:55:06.329Z,0.53
2019-06-08T02:58:11.435Z,0.50
2019-06-08T03:01:17.456Z,0.40
2019-06-08T03:04:24.201Z,0.50
2019-06-08T03:07:32.281Z,0.50
2019-06-08T03:10:39.242Z,0.50
2019-06-08T03:13:47.283Z,0.50
2019-06-08T03:16:51.967Z,0.50
2019-06-08T03:19:56.548Z,0.63
2019-06-08T03:23:01.102Z,0.50
2019-06-08T03:26:06.551Z,0.40
2019-06-08T03:29:11.268Z,0.47
2019-06-08T03:32:16.129Z,0.50
2019-06-08T03:35:20.710Z,0.50
2019-06-08T03:38:25.328Z,0.50
2019-06-08T03:41:29.917Z,0.50
2019-06-08T03:44:36.090Z,0.40
2019-06-08T03:47:41.841Z,0.40
2019-06-08T03:50:47.560Z,0.30
2019-06-08T03:53:52.144Z,0.47
2019-06-08T03:56:56.735Z,0.53
2019-06-08T04:00:01.264Z,0.50
2019-06-08T04:03:06.418Z,0.50
2019-06-08T04:06:11.034Z,0.30
2019-06-08T04:09:15.628Z,0.50
2019-06-08T04:12:20.461Z,0.40
2019-06-08T04:15:25.034Z,0.40
2019-06-08T04:18:29.632Z,0.40
2019-06-08T04:21:34.215Z,0.50
2019-06-08T04:24:40.136Z,0.60
2019-06-08T04:27:46.976Z,0.43
2019-06-08T04:30:54.491Z,0.30
2019-06-08T04:33:59.082Z,0.30
2019-06-08T04:37:03.632Z,0.40
2019-06-08T04:40:08.498Z,0.50
2019-06-08T04:43:13.151Z,0.60
2019-06-08T04:46:17.763Z,0.40
2019-06-08T04:49:25.275Z,0.60
2019-06-08T04:52:29.924Z,0.57
2019-06-08T04:55:34.507Z,0.60
2019-06-08T04:58:39.848Z,0.60
2019-06-08T05:01:46.940Z,0.53
2019-06-08T05:04:51.744Z,0.57
2019-06-08T05:07:56.375Z,0.43
2019-06-08T05:11:00.965Z,0.70
2019-06-08T05:14:05.787Z,0.50
2019-06-08T05:17:10.380Z,0.47
2019-06-08T05:20:15.046Z,0.33
2019-06-08T05:23:19.600Z,0.40
2019-06-08T05:26:25.866Z,0.47
2019-06-08T05:29:30.413Z,0.50
2019-06-08T05:32:35.051Z,0.50
2019-06-08T05:35:39.593Z,0.30
2019-06-08T05:38:45.607Z,0.50
2019-06-08T05:41:50.449Z,0.50
2019-06-08T05:44:55.051Z,0.40
2019-06-08T05:47:59.635Z,0.30
2019-06-08T05:51:04.611Z,0.50
2019-06-08T05:54:09.227Z,0.40
2019-06-08T05:57:14.423Z,0.47
2019-06-08T06:00:19.088Z,0.40
2019-06-08T06:03:23.748Z,0.50
2019-06-08T06:06:28.267Z,0.70
2019-06-08T06:09:33.143Z,0.40
2019-06-08T06:12:37.731Z,0.70
2019-06-08T06:15:42.998Z,0.50
2019-06-08T06:18:47.599Z,0.33
2019-06-08T06:21:52.169Z,0.40
2019-06-08T06:24:56.764Z,0.57
2019-06-08T06:28:01.474Z,0.40
2019-06-08T06:31:05.998Z,0.50
2019-06-08T06:34:10.838Z,0.50
2019-06-08T06:37:15.424Z,0.60
2019-06-08T06:40:20.212Z,0.60
2019-06-08T06:43:24.724Z,0.60
2019-06-08T06:46:29.658Z,0.77
2019-06-08T06:49:34.231Z,0.53
2019-06-08T06:52:38.880Z,0.57
2019-06-08T06:55:44.830Z,0.83
2019-06-08T06:58:51.324Z,0.63
2019-06-08T07:01:57.627Z,0.60
2019-06-08T07:05:02.542Z,0.50
2019-06-08T07:08:07.390Z,0.70
2019-06-08T07:11:11.854Z,0.60
2019-06-08T07:14:17.262Z,0.47
2019-06-08T07:17:22.233Z,0.53
2019-06-08T07:20:26.844Z,0.57
2019-06-08T07:23:31.781Z,0.70
2019-06-08T07:26:36.446Z,0.70
2019-06-08T07:29:41.074Z,0.47
2019-06-08T07:32:47.572Z,0.60
2019-06-08T07:35:53.446Z,0.50
2019-06-08T07:39:01.572Z,0.83
2019-06-08T07:42:06.237Z,0.80
2019-06-08T07:45:11.216Z,0.50
2019-06-08T07:48:19.077Z,0.50
2019-06-08T07:51:24.235Z,0.70
2019-06-08T07:54:28.813Z,0.50
2019-06-08T07:57:33.782Z,0.40
2019-06-08T08:00:38.911Z,0.40
2019-06-08T08:03:43.934Z,0.50
2019-06-08T08:06:48.505Z,0.63
2019-06-08T08:09:54.817Z,0.67
2019-06-08T08:12:59.974Z,0.40
2019-06-08T08:16:05.037Z,0.57
2019-06-08T08:19:09.876Z,0.50
2019-06-08T08:22:25.046Z,0.53
2019-06-08T08:25:21.323Z,0.67
2019-06-08T08:28:27.948Z,0.60
2019-06-08T08:31:33.674Z,0.50
2019-06-08T08:34:38.370Z,0.50
2019-06-08T08:37:42.951Z,0.57
2019-06-08T08:40:49.744Z,0.70
2019-06-08T08:43:58.229Z,0.53
2019-06-08T08:47:02.887Z,0.57
2019-06-08T08:50:10.936Z,0.60
2019-06-08T08:53:17.892Z,0.50
2019-06-08T08:56:21.858Z,0.53
2019-06-08T08:59:28.057Z,0.80
2019-06-08T09:02:33.043Z,0.70
2019-06-08T09:05:38.185Z,0.53
2019-06-08T09:08:43.869Z,0.60
2019-06-08T09:11:48.733Z,0.50
2019-06-08T09:14:54.852Z,0.40
2019-06-08T09:18:02.539Z,0.40
2019-06-08T09:21:08.364Z,0.80
2019-06-08T09:24:12.633Z,0.50
2019-06-08T09:27:24.140Z,0.70
2019-06-08T09:30:29.086Z,0.70
2019-06-08T09:34:03.936Z,0.77
2019-06-08T09:37:02.945Z,0.60
2019-06-08T09:40:07.009Z,0.70
2019-06-08T09:43:13.174Z,0.80
2019-06-08T09:46:18.018Z,0.80
2019-06-08T09:49:22.560Z,0.70
2019-06-08T09:52:28.166Z,0.80
2019-06-08T09:55:32.950Z,0.80
2019-06-08T09:58:39.089Z,0.70
2019-06-08T10:01:43.983Z,0.80
2019-06-08T10:04:48.532Z,0.70
2019-06-08T10:07:54.410Z,0.97
2019-06-08T10:11:01.030Z,0.80
2019-06-08T10:14:11.681Z,0.80
2019-06-08T10:17:11.656Z,0.70
2019-06-08T10:20:18.299Z,0.60
2019-06-08T10:23:42.202Z,0.60
2019-06-08T10:26:47.759Z,0.80
2019-06-08T10:29:52.468Z,0.80
2019-06-08T10:33:00.480Z,0.70
2019-06-08T10:36:05.314Z,0.80
2019-06-08T10:39:11.493Z,0.70
2019-06-08T10:42:17.824Z,0.83
2019-06-08T10:45:22.277Z,0.97
2019-06-08T10:48:27.637Z,1.17
2019-06-08T10:51:32.394Z,0.90
2019-06-08T10:54:37.820Z,0.70
2019-06-08T10:57:43.034Z,0.70
2019-06-08T11:00:48.118Z,0.70
2019-06-08T11:03:52.808Z,0.70
2019-06-08T11:07:00.217Z,0.57
2019-06-08T11:10:05.666Z,0.53
2019-06-08T11:13:14.918Z,0.60
2019-06-08T11:16:18.116Z,0.60
2019-06-08T11:19:26.300Z,0.60
2019-06-08T11:22:29.351Z,0.67
2019-06-08T11:25:34.191Z,0.77
2019-06-08T11:28:40.323Z,0.67
2019-06-08T11:31:47.962Z,0.57
2019-06-08T11:34:52.116Z,0.60
2019-06-08T11:37:58.481Z,0.80
2019-06-08T11:41:04.644Z,0.80
2019-06-08T11:44:12.452Z,0.87
2019-06-08T11:47:18.017Z,0.90
2019-06-08T11:50:41.579Z,0.80
2019-06-08T11:53:44.933Z,0.70
2019-06-08T11:56:57.424Z,0.73
2019-06-08T12:00:09.211Z,0.50
2019-06-08T12:03:08.942Z,0.83
2019-06-08T12:06:14.902Z,0.60
2019-06-08T12:09:19.452Z,0.50
2019-06-08T12:12:43.122Z,0.67
2019-06-08T12:15:48.980Z,0.67
2019-06-08T12:18:53.597Z,0.70
2019-06-08T12:21:58.162Z,0.60
2019-06-08T12:25:03.808Z,0.50
2019-06-08T12:28:08.729Z,0.70
2019-06-08T12:31:17.314Z,0.70
2019-06-08T12:34:19.484Z,0.90
2019-06-08T12:37:24.226Z,0.60
2019-06-08T12:40:28.820Z,0.60
2019-06-08T12:43:33.506Z,0.80
2019-06-08T12:46:41.303Z,0.80
2019-06-08T12:49:44.350Z,0.80
2019-06-08T12:52:48.986Z,0.60
2019-06-08T12:55:53.689Z,0.60
2019-06-08T12:59:21.499Z,0.70
2019-06-08T13:02:24.250Z,0.80
2019-06-08T13:05:29.166Z,1.00
2019-06-08T13:08:33.788Z,0.80
2019-06-08T13:11:38.423Z,0.90
2019-06-08T13:14:43.057Z,0.80
2019-06-08T13:17:47.787Z,0.80
2019-06-08T13:20:54.186Z,0.80
2019-06-08T13:23:58.699Z,0.70
2019-06-08T13:27:03.380Z,0.80
2019-06-08T13:30:09.491Z,0.90
2019-06-08T13:33:14.119Z,0.90
2019-06-08T13:36:19.759Z,0.87
2019-06-08T13:39:27.891Z,0.90
2019-06-08T13:42:32.128Z,0.90
2019-06-08T13:45:39.027Z,0.90
2019-06-08T13:49:01.946Z,0.90
2019-06-08T13:52:10.003Z,0.90
2019-06-08T13:55:34.322Z,0.93
2019-06-08T13:58:26.512Z,0.80
2019-06-08T14:01:30.460Z,0.90
2019-06-08T14:04:34.320Z,1.17
2019-06-08T14:07:39.034Z,0.70
2019-06-08T14:10:45.264Z,0.90
2019-06-08T14:13:49.887Z,0.87
2019-06-08T14:16:54.704Z,0.93
2019-06-08T14:19:59.489Z,0.90
2019-06-08T14:23:04.309Z,0.90
2019-06-08T14:26:15.002Z,1.00
2019-06-08T14:29:21.436Z,0.87
2019-06-08T14:32:25.977Z,1.00
2019-06-08T14:35:30.587Z,0.80
2019-06-08T14:38:38.690Z,0.93
2019-06-08T14:41:41.412Z,1.00
2019-06-08T14:44:47.609Z,1.10
2019-06-08T14:47:52.234Z,0.80
2019-06-08T14:50:58.394Z,0.80
2019-06-08T14:54:03.102Z,0.97
2019-06-08T14:57:08.275Z,0.90
2019-06-08T15:00:14.328Z,1.17
2019-06-08T15:03:19.778Z,0.70
2019-06-08T15:06:27.541Z,0.87
2019-06-08T15:09:30.630Z,1.00
2019-06-08T15:12:35.142Z,0.80
2019-06-08T15:15:39.740Z,0.90
2019-06-08T15:18:44.414Z,0.77
2019-06-08T15:21:48.953Z,0.83
2019-06-08T15:24:53.464Z,0.90
2019-06-08T15:28:01.222Z,0.90
2019-06-08T15:31:04.351Z,0.87
2019-06-08T15:34:10.770Z,0.90
2019-06-08T15:37:15.146Z,0.93
2019-06-08T15:40:19.849Z,0.77
2019-06-08T15:43:24.517Z,0.80
2019-06-08T15:46:30.374Z,0.90
2019-06-08T15:49:34.962Z,1.00
2019-06-08T15:52:39.558Z,0.80
2019-06-08T15:55:44.517Z,1.00
2019-06-08T15:58:49.059Z,0.90
2019-06-08T16:01:53.749Z,1.03
2019-06-08T16:04:58.356Z,0.70
2019-06-08T16:08:02.974Z,0.87
2019-06-08T16:11:07.527Z,0.83
2019-06-08T16:14:12.101Z,0.90
2019-06-08T16:17:18.119Z,1.10
2019-06-08T16:20:22.805Z,1.00
2019-06-08T16:23:27.723Z,1.10
2019-06-08T16:26:32.349Z,0.90
2019-06-08T16:29:36.928Z,0.80
2019-06-08T16:32:41.563Z,0.80
2019-06-08T16:35:46.137Z,1.00
2019-06-08T16:38:52.847Z,0.93
2019-06-08T16:41:56.903Z,1.00
2019-06-08T16:45:01.558Z,0.90
2019-06-08T16:48:06.213Z,0.93
2019-06-08T16:51:10.766Z,0.90
2019-06-08T16:54:15.302Z,0.80
2019-06-08T16:57:19.907Z,0.93
2019-06-08T17:00:36.568Z,0.90
2019-06-08T17:03:32.737Z,0.70
2019-06-08T17:06:37.485Z,1.00
2019-06-08T17:09:42.080Z,0.90
2019-06-08T17:12:46.674Z,0.77
2019-06-08T17:15:51.347Z,1.13
2019-06-08T17:18:56.357Z,0.90
2019-06-08T17:22:01.044Z,0.90
2019-06-08T17:25:08.218Z,0.80
2019-06-08T17:28:12.092Z,0.90
2019-06-08T17:31:16.699Z,1.03
2019-06-08T17:34:21.299Z,1.00
2019-06-08T17:37:25.999Z,0.97
2019-06-08T17:40:31.879Z,0.90
2019-06-08T17:43:36.661Z,0.97
2019-06-08T17:46:41.786Z,0.70
2019-06-08T17:49:47.657Z,0.87
2019-06-08T17:52:52.204Z,0.90
2019-06-08T17:55:56.717Z,0.87
2019-06-08T17:59:01.314Z,0.70
2019-06-08T18:02:10.252Z,0.73
2019-06-08T18:05:13.050Z,0.83
2019-06-08T18:08:17.687Z,0.77
2019-06-08T18:11:22.250Z,0.87
2019-06-08T18:14:27.958Z,0.80
2019-06-08T18:17:34.021Z,0.87
2019-06-08T18:20:41.683Z,0.70
2019-06-08T18:23:45.334Z,0.93
2019-06-08T18:26:49.985Z,0.80
2019-06-08T18:29:58.216Z,0.80
2019-06-08T18:33:02.918Z,0.80
2019-06-08T18:36:07.763Z,0.90
2019-06-08T18:39:12.301Z,1.07
2019-06-08T18:42:17.906Z,0.90
2019-06-08T18:45:22.566Z,0.87
2019-06-08T18:48:28.208Z,0.90
2019-06-08T18:51:32.891Z,0.90
2019-06-08T18:54:38.474Z,0.90
2019-06-08T18:57:44.145Z,0.70
2019-06-08T19:00:50.006Z,0.70
2019-06-08T19:03:54.850Z,0.63
2019-06-08T19:07:02.478Z,0.70
2019-06-08T19:10:08.492Z,0.80
2019-06-08T19:13:13.057Z,0.73
2019-06-08T19:16:18.166Z,0.80
2019-06-08T19:19:22.892Z,0.50
2019-06-08T19:22:30.014Z,0.70
2019-06-08T19:25:33.755Z,0.80
2019-06-08T19:28:42.848Z,0.70
2019-06-08T19:31:45.794Z,0.73
2019-06-08T19:34:54.013Z,0.67
2019-06-08T19:37:58.298Z,0.80
2019-06-08T19:41:03.092Z,1.10
2019-06-08T19:44:07.768Z,1.00
2019-06-08T19:47:12.349Z,0.90
2019-06-08T19:50:17.381Z,0.83
2019-06-08T19:53:21.913Z,0.63
2019-06-08T19:56:28.230Z,0.60
2019-06-08T19:59:32.899Z,0.53
2019-06-08T20:02:37.678Z,0.60
2019-06-08T20:05:42.917Z,0.60
2019-06-08T20:08:49.948Z,0.60
2019-06-08T20:11:56.946Z,0.70
2019-06-08T20:15:00.097Z,0.70
2019-06-08T20:18:04.808Z,0.80
2019-06-08T20:21:10.331Z,0.90
2019-06-08T20:24:15.079Z,0.90
2019-06-08T20:27:19.666Z,1.00
2019-06-08T20:30:24.315Z,1.10
2019-06-08T20:33:28.965Z,0.73
2019-06-08T20:36:33.547Z,0.70
2019-06-08T20:39:38.352Z,0.70
2019-06-08T20:42:44.156Z,0.70
2019-06-08T20:45:49.200Z,0.70
2019-06-08T20:48:55.000Z,0.80
2019-06-08T20:52:00.361Z,0.70
2019-06-08T20:55:07.603Z,0.50
2019-06-08T20:58:11.979Z,1.40
2019-06-08T21:01:18.049Z,1.10
2019-06-08T21:04:22.655Z,1.17
2019-06-08T21:07:28.102Z,1.20
2019-06-08T21:10:33.000Z,1.90
2019-06-08T21:13:37.630Z,2.10
2019-06-08T21:16:42.248Z,2.00
2019-06-08T21:19:46.881Z,3.40
2019-06-08T21:22:53.887Z,4.00
2019-06-08T21:26:00.141Z,2.13
2019-06-08T21:29:03.926Z,2.70
2019-06-08T21:32:08.528Z,2.10
2019-06-08T21:35:13.438Z,1.87
2019-06-08T21:38:24.003Z,1.40
2019-06-08T21:41:27.875Z,1.50
2019-06-08T21:44:32.709Z,1.07
2019-06-08T21:47:37.863Z,1.50
2019-06-08T21:50:42.544Z,1.87
2019-06-08T21:53:49.475Z,2.07
2019-06-08T21:56:54.646Z,1.70
2019-06-08T22:00:13.925Z,1.37
2019-06-08T22:03:08.058Z,1.20
2019-06-08T22:06:12.468Z,1.03
2019-06-08T22:09:17.643Z,0.90
2019-06-08T22:12:22.274Z,0.80
2019-06-08T22:15:27.112Z,0.90
2019-06-08T22:18:31.922Z,0.70
2019-06-08T22:21:37.693Z,0.80
2019-06-08T22:24:42.337Z,0.60
2019-06-08T22:27:46.902Z,0.60
2019-06-08T22:30:52.612Z,0.70
2019-06-08T22:34:00.325Z,0.60
2019-06-08T22:37:04.028Z,0.60
2019-06-08T22:40:09.003Z,0.77
2019-06-08T22:43:13.568Z,0.70
2019-06-08T22:46:18.112Z,0.70
2019-06-08T22:49:22.794Z,0.70
2019-06-08T22:52:27.797Z,0.90
2019-06-08T22:55:32.372Z,0.70
2019-06-08T22:58:37.273Z,0.83
2019-06-08T23:01:42.149Z,1.07
2019-06-08T23:04:47.523Z,0.83
2019-06-08T23:07:52.203Z,0.60
2019-06-08T23:10:58.918Z,0.70
2019-06-08T23:14:06.511Z,0.70
2019-06-08T23:17:09.680Z,0.70
2019-06-08T23:20:14.229Z,0.77
2019-06-08T23:23:18.789Z,0.60
2019-06-08T23:26:23.440Z,0.80
2019-06-08T23:29:28.023Z,0.90
2019-06-08T23:32:32.577Z,0.70
2019-06-08T23:36:02.964Z,0.90
2019-06-08T23:38:43.396Z,1.00
2019-06-08T23:41:48.350Z,0.90
2019-06-08T23:44:53.035Z,0.80
2019-06-08T23:48:00.758Z,0.90
2019-06-08T23:51:04.356Z,0.80
2019-06-08T23:54:12.008Z,0.90
2019-06-08T23:57:15.134Z,0.87
